Time;durP1;ratioP1;P1;durP2;ratioP2;P2;SDS_P1;SDS_P2;PMS_P1;PMS_P2;Temp;Humidity;BMP_temperature;BMP_pressure;BME280_temperature;BME280_humidity;BME280_pressure;Samples;Min_cycle;Max_cycle;Signal;HPM_P1;HPM_P2
2021/12/29 04:02:27;;;;;;;2.27;0.70;;;10.30;84.30;;;;;;5242586;22;20486;-75
2021/12/29 04:04:54;;;;;;;2.37;1.03;;;10.40;83.50;;;;;;5053763;28;20481;-74
2021/12/29 04:07:20;;;;;;;1.90;0.60;;;10.40;83.80;;;;;;5053760;28;20500;-74
2021/12/29 04:09:47;;;;;;;1.93;0.63;;;10.50;83.60;;;;;;5054292;28;20443;-74
2021/12/29 04:12:14;;;;;;;2.00;0.70;;;10.30;84.00;;;;;;5053581;28;20462;-75
2021/12/29 04:14:41;;;;;;;2.20;0.70;;;10.30;83.60;;;;;;5053615;28;20450;-75
2021/12/29 04:17:09;;;;;;;2.50;0.80;;;10.20;83.70;;;;;;5065125;23;20553;-77
2021/12/29 04:20:54;;;;;;;2.73;0.80;;;10.00;84.50;;;;;;5033556;28;20505;-77
2021/12/29 04:22:28;;;;;;;2.30;0.80;;;10.10;84.20;;;;;;5033200;28;20942;-77
2021/12/29 04:24:55;;;;;;;1.90;0.60;;;9.80;84.90;;;;;;5033460;28;20478;-77
2021/12/29 04:27:24;;;;;;;2.93;0.70;;;9.60;85.60;;;;;;5033473;28;20910;-77
2021/12/29 04:29:50;;;;;;;5.10;0.80;;;9.70;85.80;;;;;;5033543;28;20829;-77
2021/12/29 04:32:17;;;;;;;2.10;0.70;;;9.70;85.70;;;;;;5033459;28;20447;-77
2021/12/29 04:34:45;;;;;;;2.00;0.70;;;9.80;85.20;;;;;;5033316;28;20823;-77
2021/12/29 04:37:12;;;;;;;2.17;0.70;;;9.80;85.90;;;;;;5033325;28;20474;-77
2021/12/29 04:39:39;;;;;;;2.50;0.80;;;10.00;85.30;;;;;;5033413;28;20451;-77
2021/12/29 04:42:06;;;;;;;2.00;0.70;;;10.00;85.10;;;;;;5033309;28;20452;-77
2021/12/29 04:44:33;;;;;;;2.23;0.73;;;9.80;85.20;;;;;;5033256;28;20545;-77
2021/12/29 04:46:59;;;;;;;1.90;0.60;;;9.80;85.90;;;;;;5033160;28;20882;-77
2021/12/29 04:49:29;;;;;;;2.00;0.70;;;9.90;86.00;;;;;;5033245;28;20452;-77
2021/12/29 04:52:03;;;;;;;2.40;0.80;;;10.10;85.70;;;;;;5033310;28;20452;-77
2021/12/29 04:54:30;;;;;;;2.10;0.80;;;10.10;85.10;;;;;;5033616;28;20435;-77
2021/12/29 04:56:57;;;;;;;2.53;0.80;;;10.10;85.20;;;;;;5033394;28;20471;-77
2021/12/29 04:59:24;;;;;;;2.00;0.67;;;10.00;85.20;;;;;;5033612;28;20447;-77
2021/12/29 05:01:51;;;;;;;2.37;0.80;;;10.10;85.20;;;;;;5036597;28;20459;-77
2021/12/29 05:04:22;;;;;;;2.10;0.80;;;10.20;84.90;;;;;;5037588;28;20459;-77
2021/12/29 05:09:35;;;;;;;2.30;0.90;;;10.10;85.40;;;;;;5037944;28;20415;-78
2021/12/29 05:12:01;;;;;;;2.60;0.80;;;10.30;85.30;;;;;;5037527;28;20505;-77
2021/12/29 05:14:28;;;;;;;2.60;1.00;;;10.20;84.50;;;;;;5037642;28;20455;-77
2021/12/29 05:16:55;;;;;;;2.67;0.70;;;10.20;84.90;;;;;;5037053;28;20482;-77
2021/12/29 05:19:22;;;;;;;2.80;0.80;;;10.30;84.80;;;;;;5037068;28;21000;-77
2021/12/29 05:21:48;;;;;;;2.00;0.70;;;10.20;84.70;;;;;;5037095;28;20843;-77
2021/12/29 05:24:15;;;;;;;2.10;0.70;;;10.20;85.00;;;;;;5037548;28;20509;-77
2021/12/29 05:26:43;;;;;;;2.00;0.70;;;10.20;84.70;;;;;;5037468;28;20568;-77
2021/12/29 05:29:10;;;;;;;2.43;0.80;;;10.10;85.20;;;;;;5036872;28;20497;-77
2021/12/29 05:31:37;;;;;;;2.37;0.80;;;10.20;85.20;;;;;;5036376;28;20937;-77
2021/12/29 05:34:03;;;;;;;2.40;0.70;;;10.20;84.50;;;;;;5036302;28;20898;-77
2021/12/29 05:36:30;;;;;;;2.10;0.80;;;10.10;85.40;;;;;;5036909;28;20467;-77
2021/12/29 05:38:57;;;;;;;2.53;0.70;;;10.10;85.70;;;;;;5036409;28;20513;-77
2021/12/29 05:41:24;;;;;;;2.70;0.90;;;10.00;85.30;;;;;;5037073;28;20455;-77
2021/12/29 05:43:52;;;;;;;2.00;0.70;;;9.90;86.10;;;;;;5036745;28;20451;-77
2021/12/29 05:46:19;;;;;;;2.40;1.00;;;9.90;85.50;;;;;;5036463;28;20490;-77
2021/12/29 05:48:46;;;;;;;2.10;0.80;;;9.80;85.90;;;;;;5036394;28;20447;-77
2021/12/29 05:51:13;;;;;;;2.20;0.93;;;9.80;86.70;;;;;;5036454;28;20447;-77
2021/12/29 05:53:41;;;;;;;2.50;0.80;;;10.00;86.20;;;;;;5036537;28;20501;-77
2021/12/29 05:56:08;;;;;;;2.00;0.73;;;9.80;86.30;;;;;;5036239;28;20467;-77
2021/12/29 05:58:35;;;;;;;2.00;0.73;;;9.90;86.70;;;;;;5036027;28;20878;-77
2021/12/29 06:01:04;;;;;;;2.00;0.80;;;10.20;86.10;;;;;;5036199;28;20443;-77
2021/12/29 06:03:31;;;;;;;1.90;0.77;;;10.30;85.60;;;;;;5036250;28;20493;-77
2021/12/29 06:05:57;;;;;;;3.03;0.80;;;10.00;85.30;;;;;;5036472;28;20549;-78
2021/12/29 06:08:24;;;;;;;2.83;0.80;;;10.00;86.10;;;;;;5036688;28;20857;-77
2021/12/29 06:10:51;;;;;;;3.37;0.83;;;10.10;85.80;;;;;;5036980;28;20525;-77
2021/12/29 06:13:17;;;;;;;2.10;0.80;;;10.20;85.80;;;;;;5035753;28;20570;-77
2021/12/29 06:15:44;;;;;;;2.53;0.80;;;10.40;85.20;;;;;;5036252;28;20864;-77
2021/12/29 06:18:12;;;;;;;2.00;0.70;;;10.30;85.20;;;;;;5036524;28;20432;-77
2021/12/29 06:20:39;;;;;;;1.97;0.70;;;9.90;86.30;;;;;;5036589;28;20448;-78
2021/12/29 06:23:06;;;;;;;2.30;0.80;;;9.80;87.00;;;;;;5036671;28;20446;-78
2021/12/29 06:25:34;;;;;;;2.00;0.70;;;9.70;87.30;;;;;;5036155;28;20490;-77
2021/12/29 06:28:01;;;;;;;3.27;0.90;;;9.60;87.80;;;;;;5036226;28;20497;-77
2021/12/29 06:30:27;;;;;;;2.00;0.70;;;9.60;88.50;;;;;;5035971;28;20938;-77
2021/12/29 06:32:54;;;;;;;2.10;0.70;;;9.70;88.30;;;;;;5036191;28;20837;-77
2021/12/29 06:35:22;;;;;;;2.10;0.70;;;9.60;88.00;;;;;;5036225;28;20855;-77
2021/12/29 06:37:49;;;;;;;2.00;0.70;;;9.60;88.30;;;;;;5036091;28;20478;-77
2021/12/29 06:40:16;;;;;;;2.00;0.70;;;9.70;88.20;;;;;;5036671;28;20561;-77
2021/12/29 06:42:43;;;;;;;2.10;0.80;;;9.70;88.00;;;;;;5035859;28;20505;-77
2021/12/29 06:45:10;;;;;;;2.73;0.90;;;9.50;88.70;;;;;;5035743;28;20930;-77
2021/12/29 06:47:37;;;;;;;2.10;0.90;;;9.50;89.10;;;;;;5035752;28;20533;-77
2021/12/29 06:50:05;;;;;;;2.20;0.90;;;9.60;88.80;;;;;;5035772;28;20455;-77
2021/12/29 06:52:33;;;;;;;2.00;0.70;;;9.80;88.60;;;;;;5036017;28;20451;-77
2021/12/29 06:55:01;;;;;;;2.23;0.80;;;9.70;88.00;;;;;;5035735;28;20501;-77
2021/12/29 06:57:27;;;;;;;2.60;0.70;;;9.80;87.90;;;;;;5035414;28;20506;-77
2021/12/29 06:59:54;;;;;;;2.33;0.77;;;9.80;87.80;;;;;;5035280;28;20451;-77
2021/12/29 07:02:21;;;;;;;2.30;1.00;;;9.70;88.00;;;;;;5035096;28;20448;-77
2021/12/29 07:04:48;;;;;;;2.20;0.80;;;9.80;88.10;;;;;;5034954;28;20435;-77
2021/12/29 07:07:15;;;;;;;2.27;0.90;;;9.90;87.70;;;;;;5034831;28;20495;-77
2021/12/29 07:09:43;;;;;;;2.20;0.80;;;10.00;87.80;;;;;;5034541;28;20443;-77
2021/12/29 07:12:10;;;;;;;2.03;0.70;;;10.00;87.40;;;;;;5034906;28;20451;-77
2021/12/29 07:14:39;;;;;;;1.90;0.60;;;10.20;86.90;;;;;;5034714;28;20443;-77
2021/12/29 07:17:07;;;;;;;2.10;0.70;;;10.20;86.80;;;;;;5034820;28;20574;-77
2021/12/29 07:19:34;;;;;;;2.23;0.70;;;10.20;86.40;;;;;;5035067;28;20439;-77
2021/12/29 07:22:03;;;;;;;2.00;0.60;;;9.80;87.40;;;;;;5035113;28;20443;-77
2021/12/29 07:24:30;;;;;;;2.67;0.70;;;9.80;88.20;;;;;;5034572;28;20455;-77
2021/12/29 07:26:58;;;;;;;2.50;0.83;;;9.90;88.10;;;;;;5034025;28;21006;-77
2021/12/29 07:29:25;;;;;;;2.10;0.80;;;10.00;88.20;;;;;;5034341;28;20509;-77
2021/12/29 07:31:53;;;;;;;2.87;1.07;;;10.10;87.70;;;;;;5034295;28;20447;-77
2021/12/29 07:34:21;;;;;;;2.10;0.90;;;10.10;87.20;;;;;;5034265;28;20447;-77
2021/12/29 07:36:48;;;;;;;2.10;0.70;;;9.90;87.80;;;;;;5034748;28;20478;-77
2021/12/29 07:39:15;;;;;;;2.30;1.00;;;9.90;88.40;;;;;;5034095;28;20501;-77
2021/12/29 07:41:42;;;;;;;2.20;0.80;;;10.00;88.30;;;;;;5034204;28;20483;-77
2021/12/29 07:44:12;;;;;;;2.40;0.63;;;10.00;87.80;;;;;;5034248;28;20443;-77
2021/12/29 07:46:39;;;;;;;2.53;0.80;;;10.10;87.70;;;;;;5034238;28;20541;-77
2021/12/29 07:49:05;;;;;;;2.20;0.80;;;10.10;87.90;;;;;;5034346;28;20455;-77
2021/12/29 07:51:34;;;;;;;2.50;0.90;;;10.20;87.50;;;;;;5034179;28;20451;-77
2021/12/29 07:54:01;;;;;;;2.10;0.70;;;10.30;86.90;;;;;;5035056;28;20509;-77
2021/12/29 07:56:28;;;;;;;2.00;0.70;;;10.40;86.80;;;;;;5036829;28;20455;-78
2021/12/29 07:58:55;;;;;;;2.10;0.80;;;10.20;86.60;;;;;;5037474;28;20451;-77
2021/12/29 08:01:23;;;;;;;2.00;0.80;;;10.10;87.40;;;;;;5036789;28;20447;-77
2021/12/29 08:03:50;;;;;;;2.10;0.80;;;10.30;86.90;;;;;;5034971;28;20443;-77
2021/12/29 08:06:17;;;;;;;2.10;0.80;;;10.30;86.40;;;;;;5033360;28;20909;-77
2021/12/29 08:08:44;;;;;;;1.90;0.70;;;10.30;86.60;;;;;;5034398;28;20463;-77
2021/12/29 08:11:11;;;;;;;2.77;0.70;;;10.20;86.00;;;;;;5034808;28;20451;-77
2021/12/29 08:13:38;;;;;;;1.90;0.70;;;10.30;86.90;;;;;;5035840;28;20447;-77
2021/12/29 08:16:06;;;;;;;1.90;0.60;;;10.40;86.70;;;;;;5034102;28;20489;-77
2021/12/29 08:18:34;;;;;;;2.20;0.73;;;10.60;86.30;;;;;;5033928;28;20845;-77
2021/12/29 08:21:01;;;;;;;2.30;0.93;;;10.70;85.80;;;;;;5033688;28;20455;-77
2021/12/29 08:23:28;;;;;;;2.20;0.80;;;10.80;85.50;;;;;;5033729;28;20451;-78
2021/12/29 08:25:55;;;;;;;2.10;0.80;;;10.80;85.30;;;;;;5033685;28;20486;-77
2021/12/29 08:28:22;;;;;;;2.30;0.80;;;10.90;85.00;;;;;;5034341;28;20866;-77
2021/12/29 08:30:50;;;;;;;2.10;0.80;;;11.00;84.80;;;;;;5033439;28;20497;-77
2021/12/29 08:33:16;;;;;;;2.20;0.93;;;11.00;84.30;;;;;;5033449;28;20451;-77
2021/12/29 08:35:44;;;;;;;2.20;0.80;;;10.80;84.40;;;;;;5032471;28;20506;-77
2021/12/29 08:38:11;;;;;;;1.90;0.60;;;10.90;84.80;;;;;;5033610;28;20505;-78
2021/12/29 08:40:38;;;;;;;2.13;0.80;;;10.90;84.60;;;;;;5034987;28;20537;-78
2021/12/29 08:43:04;;;;;;;1.93;0.70;;;10.90;84.60;;;;;;5033470;28;20872;-78
2021/12/29 08:45:32;;;;;;;2.70;0.90;;;10.90;84.90;;;;;;5033241;28;20871;-77
2021/12/29 08:47:59;;;;;;;2.33;0.97;;;10.90;84.60;;;;;;5032932;28;20907;-77
2021/12/29 08:50:29;;;;;;;2.40;0.80;;;10.80;84.70;;;;;;5033171;28;20455;-77
2021/12/29 08:52:58;;;;;;;2.93;0.70;;;10.60;85.00;;;;;;5034467;28;20440;-78
2021/12/29 08:55:26;;;;;;;2.00;0.70;;;10.50;85.70;;;;;;5033135;28;20438;-78
2021/12/29 08:57:52;;;;;;;2.00;0.70;;;10.60;85.90;;;;;;5033078;28;20471;-77
2021/12/29 09:00:19;;;;;;;2.97;0.80;;;10.80;85.70;;;;;;5033324;28;20460;-78
2021/12/29 09:02:46;;;;;;;2.00;0.60;;;11.00;85.20;;;;;;5033398;28;20451;-77
2021/12/29 09:05:13;;;;;;;2.20;0.90;;;11.10;85.00;;;;;;5033652;28;20447;-78
2021/12/29 09:07:41;;;;;;;2.83;1.00;;;11.00;84.70;;;;;;5034120;28;20492;-77
2021/12/29 09:10:11;;;;;;;2.63;0.80;;;11.00;84.80;;;;;;5035337;28;20451;-78
2021/12/29 09:12:38;;;;;;;2.60;1.00;;;11.10;84.40;;;;;;5035830;28;20860;-77
2021/12/29 09:15:06;;;;;;;2.50;0.90;;;11.00;84.10;;;;;;5034750;28;20452;-77
2021/12/29 09:17:33;;;;;;;2.30;0.80;;;11.10;84.10;;;;;;5034882;28;20561;-77
2021/12/29 09:20:01;;;;;;;2.40;1.00;;;11.20;84.00;;;;;;5033936;28;20450;-77
2021/12/29 09:22:28;;;;;;;2.30;0.80;;;11.20;83.60;;;;;;5034135;28;20455;-78
2021/12/29 09:24:54;;;;;;;2.10;0.80;;;11.10;84.70;;;;;;5032682;28;20959;-78
2021/12/29 09:27:22;;;;;;;1.97;0.70;;;11.30;84.20;;;;;;5032873;28;20537;-77
2021/12/29 09:29:49;;;;;;;2.50;0.93;;;11.40;84.60;;;;;;5034022;28;20443;-77
2021/12/29 09:32:16;;;;;;;2.23;1.00;;;11.40;84.20;;;;;;5033377;28;20460;-77
2021/12/29 09:34:43;;;;;;;2.13;0.90;;;11.50;83.60;;;;;;5033397;28;20452;-78
2021/12/29 09:37:09;;;;;;;1.90;0.70;;;11.50;82.60;;;;;;5033443;28;20886;-77
2021/12/29 09:39:36;;;;;;;2.00;0.80;;;11.30;83.00;;;;;;5033677;28;20497;-77
2021/12/29 09:42:03;;;;;;;2.27;1.00;;;11.10;83.70;;;;;;5033405;28;20509;-77
2021/12/29 09:44:31;;;;;;;2.10;0.70;;;10.70;85.40;;;;;;5033348;28;20860;-78
2021/12/29 09:46:59;;;;;;;2.57;1.27;;;10.40;86.70;;;;;;5034373;28;20570;-77
2021/12/29 09:49:25;;;;;;;1.90;0.70;;;10.40;86.80;;;;;;5036800;28;20534;-77
2021/12/29 09:51:52;;;;;;;2.13;1.00;;;10.30;87.60;;;;;;5038063;28;20469;-78
2021/12/29 09:54:19;;;;;;;3.03;1.10;;;10.40;88.50;;;;;;5039990;28;20455;-78
2021/12/29 09:56:46;;;;;;;2.10;0.90;;;10.60;87.30;;;;;;5041327;28;20499;-78
2021/12/29 09:59:13;;;;;;;2.20;0.87;;;10.80;87.30;;;;;;5036579;28;20454;-76
2021/12/29 10:01:42;;;;;;;2.10;0.90;;;10.90;86.70;;;;;;5036383;28;20447;-77
2021/12/29 10:04:09;;;;;;;3.17;1.43;;;11.10;85.80;;;;;;5036514;28;20457;-77
2021/12/29 10:06:37;;;;;;;2.43;0.90;;;11.30;85.50;;;;;;5037777;28;20487;-77
2021/12/29 10:09:12;;;;;;;2.10;0.80;;;11.10;85.10;;;;;;5037450;28;20829;-77
2021/12/29 10:11:39;;;;;;;2.50;0.90;;;10.70;86.00;;;;;;5036848;28;20921;-78
2021/12/29 10:14:09;;;;;;;2.40;1.10;;;10.60;87.70;;;;;;5035799;28;20526;-77
2021/12/29 10:16:36;;;;;;;2.10;0.90;;;10.70;86.70;;;;;;5152767;22;20497;-75
2021/12/29 10:19:07;;;;;;;2.40;1.00;;;11.00;86.80;;;;;;5036045;28;20466;-75
2021/12/29 10:21:37;;;;;;;2.90;1.13;;;10.90;85.90;;;;;;5036657;28;20427;-75
2021/12/29 10:24:05;;;;;;;2.50;1.07;;;10.90;85.80;;;;;;5036907;28;20493;-75
2021/12/29 10:26:34;;;;;;;2.23;0.90;;;10.90;85.10;;;;;;5035470;28;20490;-75
2021/12/29 10:29:03;;;;;;;2.43;1.00;;;10.70;86.30;;;;;;5035648;28;20509;-75
2021/12/29 10:31:32;;;;;;;3.10;1.00;;;10.70;85.70;;;;;;5035583;28;20454;-75
2021/12/29 10:34:02;;;;;;;2.20;0.90;;;10.80;85.70;;;;;;5035421;28;20455;-75
2021/12/29 10:36:34;;;;;;;2.40;0.90;;;10.90;85.20;;;;;;5035429;28;20468;-75
2021/12/29 10:39:05;;;;;;;2.33;1.00;;;10.80;85.70;;;;;;5035526;28;20550;-75
2021/12/29 10:41:43;;;;;;;2.60;1.17;;;10.90;84.80;;;;;;5035466;28;20432;-75
2021/12/29 10:44:12;;;;;;;2.13;0.90;;;10.90;85.00;;;;;;5035407;28;20435;-75
2021/12/29 10:46:39;;;;;;;2.20;0.90;;;10.90;84.20;;;;;;5034919;28;20483;-75
2021/12/29 10:49:09;;;;;;;2.50;0.90;;;10.90;84.20;;;;;;5035241;28;20447;-75
2021/12/29 10:51:39;;;;;;;2.50;0.90;;;10.90;85.00;;;;;;5035157;28;20447;-75
2021/12/29 10:54:10;;;;;;;2.33;1.00;;;10.90;85.20;;;;;;5034941;28;20420;-75
2021/12/29 10:56:37;;;;;;;2.20;0.90;;;11.00;84.10;;;;;;5034639;28;20986;-75
2021/12/29 10:59:20;;;;;;;2.33;0.70;;;10.80;83.90;;;;;;5034556;28;20500;-75
2021/12/29 11:01:48;;;;;;;2.87;1.03;;;10.90;84.70;;;;;;5035377;28;20819;-75
2021/12/29 11:04:16;;;;;;;2.07;0.83;;;11.00;84.50;;;;;;5034742;28;20946;-75
2021/12/29 11:06:46;;;;;;;2.57;1.00;;;11.00;83.70;;;;;;5034835;28;20545;-75
2021/12/29 11:09:16;;;;;;;2.77;0.80;;;10.80;84.30;;;;;;5035049;28;20523;-75
2021/12/29 11:11:45;;;;;;;2.00;0.90;;;10.60;85.10;;;;;;5034947;28;20538;-75
2021/12/29 11:14:16;;;;;;;1.93;0.70;;;10.60;85.10;;;;;;5034911;28;20452;-75
2021/12/29 11:16:45;;;;;;;2.30;0.90;;;10.50;86.00;;;;;;5034705;28;20525;-75
2021/12/29 11:19:12;;;;;;;2.20;0.70;;;10.50;85.70;;;;;;5034720;28;20521;-75
2021/12/29 11:21:42;;;;;;;2.73;1.13;;;10.40;85.10;;;;;;5034698;28;20529;-75
2021/12/29 11:24:15;;;;;;;2.63;1.00;;;10.40;85.60;;;;;;5034790;28;20456;-75
2021/12/29 11:26:42;;;;;;;2.10;0.90;;;10.50;85.90;;;;;;5042031;28;20468;-75
2021/12/29 11:29:12;;;;;;;3.30;1.20;;;10.60;85.40;;;;;;5058169;28;20423;-76
2021/12/29 11:31:41;;;;;;;2.37;0.80;;;10.40;85.90;;;;;;5053151;28;20439;-75
2021/12/29 11:34:20;;;;;;;2.30;0.70;;;10.40;86.00;;;;;;5034750;28;20521;-76
2021/12/29 11:37:01;;;;;;;2.60;1.00;;;10.20;86.30;;;;;;5035016;28;20558;-75
2021/12/29 11:39:30;;;;;;;2.13;0.97;;;10.20;86.80;;;;;;5034524;28;20428;-75
2021/12/29 11:41:57;;;;;;;2.10;0.90;;;10.40;87.00;;;;;;5034103;28;21010;-76
2021/12/29 11:44:24;;;;;;;2.00;0.70;;;10.40;87.30;;;;;;5034188;28;20947;-76
2021/12/29 11:46:53;;;;;;;2.70;1.10;;;10.40;86.70;;;;;;5034190;28;20471;-76
2021/12/29 11:49:20;;;;;;;2.80;1.00;;;10.60;86.00;;;;;;5034217;28;20439;-76
2021/12/29 11:51:55;;;;;;;2.27;1.00;;;10.80;86.00;;;;;;5034298;28;20493;-75
2021/12/29 11:54:28;;;;;;;2.10;0.90;;;10.90;84.90;;;;;;5034409;28;20430;-76
2021/12/29 11:56:56;;;;;;;2.30;0.90;;;11.10;84.90;;;;;;5034064;28;20463;-76
2021/12/29 11:59:31;;;;;;;3.57;0.97;;;11.00;84.30;;;;;;5034067;28;20447;-75
2021/12/29 12:02:02;;;;;;;2.50;1.10;;;11.10;84.50;;;;;;5033734;28;20434;-76
2021/12/29 12:04:29;;;;;;;2.10;0.90;;;11.10;84.50;;;;;;5034033;28;20786;-76
2021/12/29 12:07:03;;;;;;;2.47;1.10;;;11.10;84.70;;;;;;5033799;28;20471;-76
2021/12/29 12:09:43;;;;;;;2.30;0.90;;;11.20;84.60;;;;;;5033777;28;20455;-76
2021/12/29 12:12:12;;;;;;;2.00;0.80;;;11.00;83.80;;;;;;5033682;28;20435;-76
2021/12/29 12:14:46;;;;;;;2.77;0.90;;;11.10;84.70;;;;;;5033488;28;20463;-76
2021/12/29 12:17:16;;;;;;;3.33;1.10;;;11.10;84.80;;;;;;5033662;28;20475;-76
2021/12/29 12:19:43;;;;;;;2.10;0.87;;;11.30;84.40;;;;;;5033881;28;20451;-75
2021/12/29 12:22:12;;;;;;;2.77;1.30;;;11.10;84.40;;;;;;5034281;28;20442;-76
2021/12/29 12:24:41;;;;;;;2.53;1.10;;;11.30;84.60;;;;;;5033967;28;20458;-76
2021/12/29 12:27:15;;;;;;;3.43;1.20;;;11.40;83.90;;;;;;5033549;28;20577;-76
2021/12/29 12:29:44;;;;;;;3.13;1.10;;;11.40;83.30;;;;;;5036101;28;20496;-75
2021/12/29 12:32:15;;;;;;;2.80;0.97;;;11.20;83.20;;;;;;5034613;28;20451;-75
2021/12/29 12:34:52;;;;;;;2.60;1.40;;;10.80;85.00;;;;;;5035298;28;20805;-75
2021/12/29 12:37:21;;;;;;;2.70;1.73;;;10.60;85.40;;;;;;5035640;28;20471;-75
2021/12/29 12:39:56;;;;;;;2.60;1.10;;;10.50;86.00;;;;;;5035696;28;20451;-75
2021/12/29 12:42:25;;;;;;;3.80;1.40;;;10.40;86.60;;;;;;5035398;28;20451;-75
2021/12/29 12:44:52;;;;;;;3.33;1.40;;;10.40;86.60;;;;;;5034763;28;20542;-75
2021/12/29 12:47:19;;;;;;;2.70;1.23;;;10.60;86.90;;;;;;5034708;28;20904;-75
2021/12/29 12:49:49;;;;;;;2.40;1.30;;;10.60;85.80;;;;;;5034615;28;20447;-75
2021/12/29 12:52:17;;;;;;;3.57;1.20;;;10.90;85.50;;;;;;5035302;28;20440;-75
2021/12/29 12:54:53;;;;;;;3.17;1.40;;;10.70;85.10;;;;;;5035290;28;20459;-76
2021/12/29 12:57:34;;;;;;;2.40;0.80;;;10.70;85.20;;;;;;5034669;28;20565;-76
2021/12/29 13:00:19;;;;;;;2.53;1.17;;;10.80;85.20;;;;;;5034914;28;21061;-75
2021/12/29 13:02:51;;;;;;;3.63;1.17;;;11.00;84.40;;;;;;5035130;28;20436;-76
2021/12/29 13:05:20;;;;;;;2.50;1.20;;;10.90;84.60;;;;;;5035344;28;20431;-76
2021/12/29 13:07:59;;;;;;;2.50;1.00;;;11.00;84.60;;;;;;5034447;28;20915;-76
2021/12/29 13:10:30;;;;;;;3.07;1.30;;;10.90;83.90;;;;;;5033232;28;20435;-76
2021/12/29 13:13:00;;;;;;;2.40;0.90;;;11.10;83.70;;;;;;5033124;28;20431;-76
2021/12/29 13:15:30;;;;;;;2.43;1.10;;;11.10;83.60;;;;;;5032960;28;20525;-76
2021/12/29 13:17:57;;;;;;;2.60;1.10;;;11.10;83.70;;;;;;5033251;28;20487;-75
2021/12/29 13:20:24;;;;;;;2.20;0.90;;;11.20;82.70;;;;;;5033201;28;20455;-76
2021/12/29 13:22:51;;;;;;;2.53;0.90;;;11.30;82.80;;;;;;5035732;28;20859;-76
2021/12/29 13:25:22;;;;;;;3.10;1.17;;;11.40;82.60;;;;;;5037233;28;20447;-75
2021/12/29 13:28:01;;;;;;;2.80;1.10;;;11.20;81.60;;;;;;5036959;28;20510;-76
2021/12/29 13:30:31;;;;;;;2.70;1.10;;;11.10;82.50;;;;;;5037055;28;20439;-76
2021/12/29 13:33:00;;;;;;;2.30;1.00;;;10.90;82.60;;;;;;5036870;28;20435;-76
2021/12/29 13:35:28;;;;;;;2.43;0.90;;;10.80;82.80;;;;;;5036542;28;20509;-76
2021/12/29 13:37:58;;;;;;;2.63;0.97;;;10.70;83.50;;;;;;5036718;28;20525;-76
2021/12/29 13:40:29;;;;;;;2.50;0.83;;;10.60;83.60;;;;;;5036670;28;20455;-76
2021/12/29 13:42:56;;;;;;;2.00;0.83;;;10.70;83.50;;;;;;5036612;28;20450;-76
2021/12/29 13:45:24;;;;;;;2.20;0.90;;;10.60;83.40;;;;;;5036619;28;20443;-76
2021/12/29 13:47:53;;;;;;;4.13;1.20;;;10.30;84.00;;;;;;5036347;28;20486;-76
2021/12/29 13:50:20;;;;;;;2.37;1.00;;;10.40;84.70;;;;;;5036690;28;20443;-76
2021/12/29 13:52:59;;;;;;;3.33;0.77;;;10.30;84.00;;;;;;5036087;28;20870;-76
2021/12/29 13:55:28;;;;;;;3.03;1.00;;;10.40;83.90;;;;;;5036456;28;20462;-76
2021/12/29 13:57:55;;;;;;;1.90;0.60;;;10.30;84.50;;;;;;5036100;28;20974;-76
2021/12/29 14:00:21;;;;;;;3.43;0.93;;;10.50;84.60;;;;;;5036621;28;20501;-76
2021/12/29 14:02:48;;;;;;;2.57;1.00;;;10.60;83.70;;;;;;5036421;28;20439;-76
2021/12/29 14:05:16;;;;;;;2.20;0.97;;;10.40;84.10;;;;;;5036176;28;20443;-76
2021/12/29 14:07:43;;;;;;;2.50;0.80;;;10.40;83.90;;;;;;5035964;28;20536;-76
2021/12/29 14:10:11;;;;;;;2.07;0.73;;;10.20;84.80;;;;;;5036045;28;20447;-76
2021/12/29 14:12:38;;;;;;;2.00;0.80;;;10.30;85.50;;;;;;5036035;28;20505;-76
2021/12/29 14:15:09;;;;;;;2.10;0.90;;;10.40;85.00;;;;;;5035973;28;20447;-76
2021/12/29 14:17:39;;;;;;;2.20;0.90;;;10.40;84.50;;;;;;5035688;28;20508;-76
2021/12/29 14:20:09;;;;;;;2.20;0.90;;;10.40;84.70;;;;;;5035846;28;20840;-76
2021/12/29 14:22:37;;;;;;;2.40;1.03;;;10.60;84.80;;;;;;5036477;28;20506;-76
2021/12/29 14:25:08;;;;;;;2.00;0.80;;;10.60;85.20;;;;;;5035909;28;20447;-76
2021/12/29 14:27:37;;;;;;;2.00;0.80;;;10.60;85.50;;;;;;5035641;28;20502;-76
2021/12/29 14:30:14;;;;;;;3.90;0.90;;;10.60;84.90;;;;;;5035679;28;20870;-76
2021/12/29 14:32:52;;;;;;;2.00;0.70;;;10.50;85.90;;;;;;5035829;28;20435;-75
2021/12/29 14:35:19;;;;;;;2.17;0.80;;;10.40;85.70;;;;;;5035302;28;20930;-76
2021/12/29 14:37:47;;;;;;;2.60;0.87;;;10.30;86.70;;;;;;5036327;28;20521;-76
2021/12/29 14:40:23;;;;;;;1.90;0.70;;;10.20;87.50;;;;;;5035762;28;20439;-76
2021/12/29 14:42:50;;;;;;;2.00;0.70;;;10.30;87.60;;;;;;5035558;28;20443;-76
2021/12/29 14:45:18;;;;;;;3.27;1.07;;;10.10;87.70;;;;;;5035509;28;20477;-76
2021/12/29 14:47:50;;;;;;;2.50;0.83;;;10.10;88.20;;;;;;5035336;28;20877;-76
2021/12/29 14:50:20;;;;;;;2.30;1.23;;;9.90;88.60;;;;;;5035794;28;20459;-76
2021/12/29 14:52:50;;;;;;;2.17;0.80;;;9.80;89.30;;;;;;5035414;28;20489;-76
2021/12/29 14:55:20;;;;;;;3.13;0.80;;;9.80;90.10;;;;;;5035241;28;20455;-76
2021/12/29 14:57:47;;;;;;;2.20;0.80;;;9.80;90.10;;;;;;5035172;28;20474;-76
2021/12/29 15:00:18;;;;;;;2.17;0.90;;;9.80;90.40;;;;;;5035174;28;20447;-76
2021/12/29 15:02:47;;;;;;;2.70;0.80;;;9.80;90.20;;;;;;5034763;28;20431;-76
2021/12/29 15:05:18;;;;;;;2.40;0.70;;;9.90;90.40;;;;;;5035038;28;20879;-76
2021/12/29 15:07:47;;;;;;;1.93;0.70;;;9.90;90.00;;;;;;5034908;28;20471;-76
2021/12/29 15:10:17;;;;;;;2.00;0.70;;;10.00;90.00;;;;;;5034642;28;20856;-76
2021/12/29 15:12:48;;;;;;;2.00;0.70;;;9.80;90.10;;;;;;5034915;28;20493;-76
2021/12/29 15:15:19;;;;;;;2.30;0.77;;;9.80;90.70;;;;;;5034879;28;20440;-76
2021/12/29 15:17:53;;;;;;;1.90;0.80;;;9.80;90.60;;;;;;5034591;28;20486;-76
2021/12/29 15:20:20;;;;;;;2.40;0.80;;;9.80;91.10;;;;;;5034811;28;20451;-76
2021/12/29 15:22:47;;;;;;;2.00;0.80;;;9.90;90.60;;;;;;5034782;28;20447;-76
2021/12/29 15:25:19;;;;;;;2.10;0.90;;;9.70;90.90;;;;;;5034593;28;20505;-76
2021/12/29 15:27:46;;;;;;;2.40;1.17;;;9.50;91.90;;;;;;5034642;28;20479;-76
2021/12/29 15:30:13;;;;;;;2.60;0.87;;;9.50;92.80;;;;;;5034623;28;20497;-76
2021/12/29 15:32:40;;;;;;;2.40;0.90;;;9.50;92.40;;;;;;5034524;28;20467;-76
2021/12/29 15:35:09;;;;;;;3.03;0.80;;;9.50;92.50;;;;;;5034657;28;20517;-76
2021/12/29 15:37:35;;;;;;;2.00;0.80;;;9.60;92.40;;;;;;5034190;28;20502;-76
2021/12/29 15:40:02;;;;;;;3.07;1.00;;;9.70;92.10;;;;;;5034081;28;20501;-76
2021/12/29 15:42:30;;;;;;;2.20;0.90;;;9.80;91.50;;;;;;5034269;28;20483;-76
2021/12/29 15:44:57;;;;;;;2.23;0.80;;;9.70;91.70;;;;;;5033949;28;20939;-76
2021/12/29 15:47:24;;;;;;;2.47;0.80;;;9.70;91.50;;;;;;5034598;28;20475;-76
2021/12/29 15:49:50;;;;;;;2.10;0.80;;;9.60;91.40;;;;;;5034145;28;20487;-76
2021/12/29 15:52:17;;;;;;;2.10;0.90;;;9.40;92.10;;;;;;5034211;28;20642;-76
2021/12/29 15:54:44;;;;;;;2.20;0.90;;;9.40;91.90;;;;;;5034072;28;20462;-76
2021/12/29 15:57:10;;;;;;;2.20;0.90;;;9.30;92.40;;;;;;5033659;28;20566;-76
2021/12/29 15:59:39;;;;;;;2.10;0.90;;;9.40;92.60;;;;;;5034036;28;20439;-76
2021/12/29 16:02:07;;;;;;;3.57;0.90;;;9.40;92.20;;;;;;5033926;28;20447;-76
2021/12/29 16:04:34;;;;;;;3.10;0.90;;;9.40;92.10;;;;;;5033940;28;20809;-76
2021/12/29 16:07:02;;;;;;;2.00;0.80;;;9.30;92.30;;;;;;5033551;28;20466;-76
2021/12/29 16:09:29;;;;;;;2.40;0.90;;;9.40;92.40;;;;;;5033520;28;20481;-76
2021/12/29 16:11:56;;;;;;;2.10;0.80;;;9.50;92.30;;;;;;5033800;28;20455;-76
2021/12/29 16:14:23;;;;;;;2.07;0.80;;;9.30;92.10;;;;;;5033796;28;20454;-76
2021/12/29 16:16:52;;;;;;;2.10;0.80;;;9.20;92.90;;;;;;5057759;23;20487;-77
2021/12/29 16:19:18;;;;;;;2.00;0.70;;;9.20;93.10;;;;;;5033780;28;20427;-77
2021/12/29 16:21:45;;;;;;;2.80;1.13;;;9.20;93.10;;;;;;5033967;28;20450;-77
2021/12/29 16:24:12;;;;;;;2.13;0.80;;;9.10;93.30;;;;;;5033645;28;20873;-77
2021/12/29 16:26:39;;;;;;;2.43;0.80;;;9.10;93.70;;;;;;5033902;28;20454;-77
2021/12/29 16:29:06;;;;;;;2.77;1.00;;;9.00;93.60;;;;;;5034812;28;20483;-78
2021/12/29 16:31:33;;;;;;;2.20;0.90;;;9.20;93.80;;;;;;5034829;28;20497;-78
2021/12/29 16:34:01;;;;;;;2.30;1.13;;;9.20;94.00;;;;;;5034055;28;20474;-78
2021/12/29 16:36:29;;;;;;;1.97;0.70;;;9.30;93.50;;;;;;5034372;28;20498;-77
2021/12/29 16:38:56;;;;;;;2.63;0.97;;;9.20;93.30;;;;;;5034144;28;20443;-78
2021/12/29 16:41:23;;;;;;;2.00;0.70;;;9.10;93.90;;;;;;5033775;28;20443;-78
2021/12/29 16:43:50;;;;;;;2.00;0.80;;;9.00;93.90;;;;;;5034442;28;20459;-78
2021/12/29 16:46:20;;;;;;;2.10;0.93;;;9.00;94.10;;;;;;5036039;28;20446;-78
2021/12/29 16:48:47;;;;;;;2.97;0.90;;;9.00;94.20;;;;;;5033831;28;20852;-77
2021/12/29 16:51:15;;;;;;;2.60;1.00;;;9.00;94.40;;;;;;5034491;28;20451;-78
2021/12/29 16:53:43;;;;;;;2.10;0.80;;;9.00;94.20;;;;;;5034268;28;20451;-78
2021/12/29 16:56:10;;;;;;;2.07;0.80;;;9.10;94.60;;;;;;5034090;28;20474;-78
2021/12/29 16:58:37;;;;;;;2.10;0.90;;;9.20;94.20;;;;;;5037681;28;20517;-78
2021/12/29 17:01:05;;;;;;;2.10;0.80;;;9.10;94.00;;;;;;5037629;28;20454;-78